sensor_id;sensor_type;location;lat;lon;timestamp;temperature;humidity
71128;SHT30;59249;59.736;30.568;2022-09-21T00:01:40;10.76;85.28
71128;SHT30;59249;59.736;30.568;2022-09-21T00:04:09;10.82;85.26
71128;SHT30;59249;59.736;30.568;2022-09-21T00:06:38;10.77;85.19
71128;SHT30;59249;59.736;30.568;2022-09-21T00:09:06;10.82;85.27
71128;SHT30;59249;59.736;30.568;2022-09-21T00:11:36;10.89;84.90
71128;SHT30;59249;59.736;30.568;2022-09-21T00:14:10;10.87;85.28
71128;SHT30;59249;59.736;30.568;2022-09-21T00:16:40;10.85;85.46
71128;SHT30;59249;59.736;30.568;2022-09-21T00:19:09;10.76;85.75
71128;SHT30;59249;59.736;30.568;2022-09-21T00:21:38;10.76;85.44
71128;SHT30;59249;59.736;30.568;2022-09-21T00:24:09;10.68;85.63
71128;SHT30;59249;59.736;30.568;2022-09-21T00:26:38;10.61;86.00
71128;SHT30;59249;59.736;30.568;2022-09-21T00:29:09;10.72;85.77
71128;SHT30;59249;59.736;30.568;2022-09-21T00:31:39;10.71;85.92
71128;SHT30;59249;59.736;30.568;2022-09-21T00:34:07;10.62;86.15
71128;SHT30;59249;59.736;30.568;2022-09-21T00:36:36;10.64;86.06
71128;SHT30;59249;59.736;30.568;2022-09-21T00:39:05;10.59;86.24
71128;SHT30;59249;59.736;30.568;2022-09-21T00:41:34;10.50;86.43
71128;SHT30;59249;59.736;30.568;2022-09-21T00:44:29;10.47;86.42
71128;SHT30;59249;59.736;30.568;2022-09-21T00:47:03;10.36;86.76
71128;SHT30;59249;59.736;30.568;2022-09-21T00:49:36;10.42;86.79
71128;SHT30;59249;59.736;30.568;2022-09-21T00:52:06;10.41;86.74
71128;SHT30;59249;59.736;30.568;2022-09-21T00:54:40;10.37;86.99
71128;SHT30;59249;59.736;30.568;2022-09-21T00:57:11;10.34;86.94
71128;SHT30;59249;59.736;30.568;2022-09-21T00:59:44;10.33;87.08
71128;SHT30;59249;59.736;30.568;2022-09-21T01:02:13;10.36;86.95
71128;SHT30;59249;59.736;30.568;2022-09-21T01:04:42;10.28;86.95
71128;SHT30;59249;59.736;30.568;2022-09-21T01:07:19;10.15;87.52
71128;SHT30;59249;59.736;30.568;2022-09-21T01:09:53;10.17;87.63
71128;SHT30;59249;59.736;30.568;2022-09-21T01:12:46;10.12;87.64
71128;SHT30;59249;59.736;30.568;2022-09-21T01:15:34;10.01;87.90
71128;SHT30;59249;59.736;30.568;2022-09-21T01:18:12;10.08;87.64
71128;SHT30;59249;59.736;30.568;2022-09-21T01:21:23;9.87;88.16
71128;SHT30;59249;59.736;30.568;2022-09-21T01:24:19;9.91;87.97
71128;SHT30;59249;59.736;30.568;2022-09-21T01:27:38;9.94;87.78
71128;SHT30;59249;59.736;30.568;2022-09-21T01:30:12;9.92;87.87
71128;SHT30;59249;59.736;30.568;2022-09-21T01:32:48;9.89;88.04
71128;SHT30;59249;59.736;30.568;2022-09-21T01:35:24;9.80;88.05
71128;SHT30;59249;59.736;30.568;2022-09-21T01:37:59;9.82;88.07
71128;SHT30;59249;59.736;30.568;2022-09-21T01:40:34;9.72;88.43
71128;SHT30;59249;59.736;30.568;2022-09-21T01:43:08;9.75;88.24
71128;SHT30;59249;59.736;30.568;2022-09-21T01:45:45;9.76;88.21
71128;SHT30;59249;59.736;30.568;2022-09-21T01:48:17;9.80;88.15
71128;SHT30;59249;59.736;30.568;2022-09-21T01:50:53;9.67;88.57
71128;SHT30;59249;59.736;30.568;2022-09-21T01:53:29;9.67;88.66
71128;SHT30;59249;59.736;30.568;2022-09-21T01:56:05;9.57;88.78
71128;SHT30;59249;59.736;30.568;2022-09-21T01:58:41;9.58;88.67
71128;SHT30;59249;59.736;30.568;2022-09-21T02:01:17;9.58;88.78
71128;SHT30;59249;59.736;30.568;2022-09-21T02:03:53;9.47;89.32
71128;SHT30;59249;59.736;30.568;2022-09-21T02:06:24;9.49;89.16
71128;SHT30;59249;59.736;30.568;2022-09-21T02:08:55;9.42;89.36
71128;SHT30;59249;59.736;30.568;2022-09-21T02:11:25;9.40;89.44
71128;SHT30;59249;59.736;30.568;2022-09-21T02:13:54;9.36;89.64
71128;SHT30;59249;59.736;30.568;2022-09-21T02:16:37;9.32;89.58
71128;SHT30;59249;59.736;30.568;2022-09-21T02:19:13;9.31;89.64
71128;SHT30;59249;59.736;30.568;2022-09-21T02:21:56;9.32;89.62
71128;SHT30;59249;59.736;30.568;2022-09-21T02:24:37;9.28;89.65
71128;SHT30;59249;59.736;30.568;2022-09-21T02:27:22;9.31;89.80
71128;SHT30;59249;59.736;30.568;2022-09-21T02:30:05;9.26;89.68
71128;SHT30;59249;59.736;30.568;2022-09-21T02:32:44;9.27;90.10
71128;SHT30;59249;59.736;30.568;2022-09-21T02:35:30;9.31;89.96
71128;SHT30;59249;59.736;30.568;2022-09-21T02:38:10;9.27;89.78
71128;SHT30;59249;59.736;30.568;2022-09-21T02:40:46;9.28;89.95
71128;SHT30;59249;59.736;30.568;2022-09-21T02:43:23;9.29;89.48
71128;SHT30;59249;59.736;30.568;2022-09-21T02:45:59;9.24;89.68
71128;SHT30;59249;59.736;30.568;2022-09-21T02:48:37;9.27;89.85
71128;SHT30;59249;59.736;30.568;2022-09-21T02:51:12;9.24;89.98
71128;SHT30;59249;59.736;30.568;2022-09-21T02:53:45;9.19;90.14
71128;SHT30;59249;59.736;30.568;2022-09-21T02:56:16;9.13;90.40
71128;SHT30;59249;59.736;30.568;2022-09-21T02:58:49;9.18;90.06
71128;SHT30;59249;59.736;30.568;2022-09-21T03:01:22;9.17;89.93
71128;SHT30;59249;59.736;30.568;2022-09-21T03:03:53;9.19;90.04
71128;SHT30;59249;59.736;30.568;2022-09-21T03:06:22;9.17;90.20
71128;SHT30;59249;59.736;30.568;2022-09-21T03:08:51;9.24;90.18
71128;SHT30;59249;59.736;30.568;2022-09-21T03:11:19;9.17;90.03
71128;SHT30;59249;59.736;30.568;2022-09-21T03:13:48;9.19;90.01
71128;SHT30;59249;59.736;30.568;2022-09-21T03:16:17;9.20;90.14
71128;SHT30;59249;59.736;30.568;2022-09-21T03:18:46;9.22;90.26
71128;SHT30;59249;59.736;30.568;2022-09-21T03:21:16;9.22;90.01
71128;SHT30;59249;59.736;30.568;2022-09-21T03:23:45;9.14;90.11
71128;SHT30;59249;59.736;30.568;2022-09-21T03:26:14;9.16;90.28
71128;SHT30;59249;59.736;30.568;2022-09-21T03:28:43;9.11;90.40
71128;SHT30;59249;59.736;30.568;2022-09-21T03:31:11;9.14;90.46
71128;SHT30;59249;59.736;30.568;2022-09-21T03:33:40;9.18;90.59
71128;SHT30;59249;59.736;30.568;2022-09-21T03:36:09;9.17;90.31
71128;SHT30;59249;59.736;30.568;2022-09-21T03:38:39;9.11;90.52
71128;SHT30;59249;59.736;30.568;2022-09-21T03:41:09;9.10;90.62
71128;SHT30;59249;59.736;30.568;2022-09-21T03:43:38;9.12;90.55
71128;SHT30;59249;59.736;30.568;2022-09-21T03:46:06;9.15;90.43
71128;SHT30;59249;59.736;30.568;2022-09-21T03:48:35;9.19;90.32
71128;SHT30;59249;59.736;30.568;2022-09-21T03:51:04;9.12;90.17
71128;SHT30;59249;59.736;30.568;2022-09-21T03:53:33;9.19;89.93
71128;SHT30;59249;59.736;30.568;2022-09-21T03:56:03;9.22;89.92
71128;SHT30;59249;59.736;30.568;2022-09-21T03:58:32;9.19;90.18
71128;SHT30;59249;59.736;30.568;2022-09-21T04:01:03;9.28;90.03
71128;SHT30;59249;59.736;30.568;2022-09-21T04:03:32;9.24;89.90
71128;SHT30;59249;59.736;30.568;2022-09-21T04:06:07;9.26;89.61
71128;SHT30;59249;59.736;30.568;2022-09-21T04:08:36;9.28;89.45
71128;SHT30;59249;59.736;30.568;2022-09-21T04:11:09;9.19;89.81
71128;SHT30;59249;59.736;30.568;2022-09-21T04:13:39;9.26;89.95
71128;SHT30;59249;59.736;30.568;2022-09-21T04:16:09;9.34;90.03
71128;SHT30;59249;59.736;30.568;2022-09-21T04:18:38;9.38;89.93
71128;SHT30;59249;59.736;30.568;2022-09-21T04:21:07;9.38;89.85
71128;SHT30;59249;59.736;30.568;2022-09-21T04:23:36;9.42;89.83
71128;SHT30;59249;59.736;30.568;2022-09-21T04:26:04;9.43;89.73
71128;SHT30;59249;59.736;30.568;2022-09-21T04:28:34;9.46;89.58
71128;SHT30;59249;59.736;30.568;2022-09-21T04:31:03;9.38;89.21
71128;SHT30;59249;59.736;30.568;2022-09-21T04:33:33;9.23;89.36
71128;SHT30;59249;59.736;30.568;2022-09-21T04:36:02;9.25;89.54
71128;SHT30;59249;59.736;30.568;2022-09-21T04:38:31;9.28;89.64
71128;SHT30;59249;59.736;30.568;2022-09-21T04:41:00;9.31;89.45
71128;SHT30;59249;59.736;30.568;2022-09-21T04:43:29;9.31;89.60
71128;SHT30;59249;59.736;30.568;2022-09-21T04:46:05;9.37;89.50
71128;SHT30;59249;59.736;30.568;2022-09-21T04:48:34;9.38;89.21
71128;SHT30;59249;59.736;30.568;2022-09-21T04:51:03;9.45;89.27
71128;SHT30;59249;59.736;30.568;2022-09-21T04:53:35;9.47;89.16
71128;SHT30;59249;59.736;30.568;2022-09-21T04:56:06;9.55;88.83
71128;SHT30;59249;59.736;30.568;2022-09-21T04:58:35;9.53;88.69
71128;SHT30;59249;59.736;30.568;2022-09-21T05:01:05;9.52;88.61
71128;SHT30;59249;59.736;30.568;2022-09-21T05:03:34;9.57;88.37
71128;SHT30;59249;59.736;30.568;2022-09-21T05:06:04;9.71;88.48
71128;SHT30;59249;59.736;30.568;2022-09-21T05:08:34;9.79;88.21
71128;SHT30;59249;59.736;30.568;2022-09-21T05:11:20;9.97;88.09
71128;SHT30;59249;59.736;30.568;2022-09-21T05:13:50;10.13;87.94
71128;SHT30;59249;59.736;30.568;2022-09-21T05:16:20;10.22;87.76
71128;SHT30;59249;59.736;30.568;2022-09-21T05:18:52;10.24;87.39
71128;SHT30;59249;59.736;30.568;2022-09-21T05:21:24;10.33;87.51
71128;SHT30;59249;59.736;30.568;2022-09-21T05:23:53;10.42;87.49
71128;SHT30;59249;59.736;30.568;2022-09-21T05:26:22;10.50;87.11
71128;SHT30;59249;59.736;30.568;2022-09-21T05:28:52;10.58;87.10
71128;SHT30;59249;59.736;30.568;2022-09-21T05:31:42;10.74;86.63
71128;SHT30;59249;59.736;30.568;2022-09-21T05:34:40;10.75;86.24
71128;SHT30;59249;59.736;30.568;2022-09-21T05:37:46;10.73;86.23
71128;SHT30;59249;59.736;30.568;2022-09-21T05:40:17;10.71;86.52
71128;SHT30;59249;59.736;30.568;2022-09-21T05:42:48;10.80;86.42
71128;SHT30;59249;59.736;30.568;2022-09-21T05:45:21;10.76;86.55
71128;SHT30;59249;59.736;30.568;2022-09-21T05:48:05;10.85;86.55
71128;SHT30;59249;59.736;30.568;2022-09-21T05:50:51;10.92;86.24
71128;SHT30;59249;59.736;30.568;2022-09-21T05:53:49;11.12;86.24
71128;SHT30;59249;59.736;30.568;2022-09-21T05:56:42;11.24;86.42
71128;SHT30;59249;59.736;30.568;2022-09-21T05:59:35;11.44;86.31
71128;SHT30;59249;59.736;30.568;2022-09-21T06:02:21;11.41;85.98
71128;SHT30;59249;59.736;30.568;2022-09-21T06:05:00;11.66;85.63
71128;SHT30;59249;59.736;30.568;2022-09-21T06:07:31;11.75;85.44
71128;SHT30;59249;59.736;30.568;2022-09-21T06:10:11;11.63;85.87
71128;SHT30;59249;59.736;30.568;2022-09-21T06:12:47;11.70;85.73
71128;SHT30;59249;59.736;30.568;2022-09-21T06:15:21;11.71;85.47
71128;SHT30;59249;59.736;30.568;2022-09-21T06:17:50;11.80;85.57
71128;SHT30;59249;59.736;30.568;2022-09-21T06:20:22;11.86;85.39
71128;SHT30;59249;59.736;30.568;2022-09-21T06:22:51;11.83;85.54
71128;SHT30;59249;59.736;30.568;2022-09-21T06:25:21;12.01;85.51
71128;SHT30;59249;59.736;30.568;2022-09-21T06:27:49;12.02;85.69
71128;SHT30;59249;59.736;30.568;2022-09-21T06:30:18;12.13;85.58
71128;SHT30;59249;59.736;30.568;2022-09-21T06:32:47;12.22;85.45
71128;SHT30;59249;59.736;30.568;2022-09-21T06:35:16;12.34;84.82
71128;SHT30;59249;59.736;30.568;2022-09-21T06:37:46;12.39;84.50
71128;SHT30;59249;59.736;30.568;2022-09-21T06:40:15;12.40;84.58
71128;SHT30;59249;59.736;30.568;2022-09-21T06:42:43;12.41;84.95
71128;SHT30;59249;59.736;30.568;2022-09-21T06:45:12;12.40;85.01
71128;SHT30;59249;59.736;30.568;2022-09-21T06:47:46;12.57;84.91
71128;SHT30;59249;59.736;30.568;2022-09-21T06:50:14;12.59;85.02
71128;SHT30;59249;59.736;30.568;2022-09-21T06:52:47;12.64;84.60
71128;SHT30;59249;59.736;30.568;2022-09-21T06:55:16;12.64;84.68
71128;SHT30;59249;59.736;30.568;2022-09-21T06:57:45;12.73;84.31
71128;SHT30;59249;59.736;30.568;2022-09-21T07:00:16;12.78;84.21
71128;SHT30;59249;59.736;30.568;2022-09-21T07:02:48;12.74;84.45
71128;SHT30;59249;59.736;30.568;2022-09-21T07:05:17;12.78;83.87
71128;SHT30;59249;59.736;30.568;2022-09-21T07:07:48;12.80;84.14
71128;SHT30;59249;59.736;30.568;2022-09-21T07:10:20;12.71;83.91
71128;SHT30;59249;59.736;30.568;2022-09-21T07:12:52;12.87;83.55
71128;SHT30;59249;59.736;30.568;2022-09-21T07:15:25;12.91;83.91
71128;SHT30;59249;59.736;30.568;2022-09-21T07:17:56;12.94;83.95
71128;SHT30;59249;59.736;30.568;2022-09-21T07:20:32;13.18;83.02
71128;SHT30;59249;59.736;30.568;2022-09-21T07:23:11;13.27;82.60
71128;SHT30;59249;59.736;30.568;2022-09-21T07:25:42;13.26;81.67
71128;SHT30;59249;59.736;30.568;2022-09-21T07:28:12;13.24;81.90
71128;SHT30;59249;59.736;30.568;2022-09-21T07:30:42;13.24;82.25
71128;SHT30;59249;59.736;30.568;2022-09-21T07:33:13;13.27;81.63
71128;SHT30;59249;59.736;30.568;2022-09-21T07:35:50;13.31;81.91
71128;SHT30;59249;59.736;30.568;2022-09-21T07:38:21;13.42;82.14
71128;SHT30;59249;59.736;30.568;2022-09-21T07:40:51;13.37;82.11
71128;SHT30;59249;59.736;30.568;2022-09-21T07:43:28;13.55;82.06
71128;SHT30;59249;59.736;30.568;2022-09-21T07:45:57;13.62;82.15
71128;SHT30;59249;59.736;30.568;2022-09-21T07:48:26;13.74;81.27
71128;SHT30;59249;59.736;30.568;2022-09-21T07:51:01;13.85;81.04
71128;SHT30;59249;59.736;30.568;2022-09-21T07:53:34;13.86;81.21
71128;SHT30;59249;59.736;30.568;2022-09-21T07:56:08;14.03;80.98
71128;SHT30;59249;59.736;30.568;2022-09-21T07:58:38;14.19;80.66
71128;SHT30;59249;59.736;30.568;2022-09-21T08:01:26;14.28;79.49
71128;SHT30;59249;59.736;30.568;2022-09-21T08:03:57;14.30;79.25
71128;SHT30;59249;59.736;30.568;2022-09-21T08:06:30;14.32;79.18
71128;SHT30;59249;59.736;30.568;2022-09-21T08:09:13;14.14;79.95
71128;SHT30;59249;59.736;30.568;2022-09-21T08:11:43;14.27;79.47
71128;SHT30;59249;59.736;30.568;2022-09-21T08:14:13;14.07;79.44
71128;SHT30;59249;59.736;30.568;2022-09-21T08:16:52;14.20;79.80
71128;SHT30;59249;59.736;30.568;2022-09-21T08:19:22;14.37;79.11
71128;SHT30;59249;59.736;30.568;2022-09-21T08:21:57;14.41;77.82
71128;SHT30;59249;59.736;30.568;2022-09-21T08:24:30;14.30;78.88
71128;SHT30;59249;59.736;30.568;2022-09-21T08:26:59;14.31;78.31
71128;SHT30;59249;59.736;30.568;2022-09-21T08:29:28;14.28;78.50
71128;SHT30;59249;59.736;30.568;2022-09-21T08:31:57;14.30;79.02
71128;SHT30;59249;59.736;30.568;2022-09-21T08:34:27;14.40;78.79
71128;SHT30;59249;59.736;30.568;2022-09-21T08:36:57;14.46;78.90
71128;SHT30;59249;59.736;30.568;2022-09-21T08:39:26;14.46;77.57
71128;SHT30;59249;59.736;30.568;2022-09-21T08:42:12;14.55;77.83
71128;SHT30;59249;59.736;30.568;2022-09-21T08:44:49;14.62;78.07
71128;SHT30;59249;59.736;30.568;2022-09-21T08:47:35;14.72;77.62
71128;SHT30;59249;59.736;30.568;2022-09-21T08:50:28;14.79;76.58
71128;SHT30;59249;59.736;30.568;2022-09-21T08:53:05;14.69;76.77
71128;SHT30;59249;59.736;30.568;2022-09-21T08:55:35;14.55;76.31
71128;SHT30;59249;59.736;30.568;2022-09-21T08:58:20;14.45;76.56
71128;SHT30;59249;59.736;30.568;2022-09-21T09:01:19;14.48;75.66
71128;SHT30;59249;59.736;30.568;2022-09-21T09:04:20;14.48;75.34
71128;SHT30;59249;59.736;30.568;2022-09-21T09:07:07;14.51;74.14
71128;SHT30;59249;59.736;30.568;2022-09-21T09:09:59;14.72;73.33
71128;SHT30;59249;59.736;30.568;2022-09-21T09:12:53;14.68;74.38
71128;SHT30;59249;59.736;30.568;2022-09-21T09:16:04;14.54;75.27
71128;SHT30;59249;59.736;30.568;2022-09-21T09:18:51;14.55;75.32
71128;SHT30;59249;59.736;30.568;2022-09-21T09:21:27;14.56;75.50
71128;SHT30;59249;59.736;30.568;2022-09-21T09:24:04;14.51;75.69
71128;SHT30;59249;59.736;30.568;2022-09-21T09:26:41;14.57;75.80
71128;SHT30;59249;59.736;30.568;2022-09-21T09:29:21;14.48;76.08
71128;SHT30;59249;59.736;30.568;2022-09-21T09:31:56;14.56;75.52
71128;SHT30;59249;59.736;30.568;2022-09-21T09:34:31;14.52;75.97
71128;SHT30;59249;59.736;30.568;2022-09-21T09:37:12;14.40;76.51
71128;SHT30;59249;59.736;30.568;2022-09-21T09:39:52;14.40;76.64
71128;SHT30;59249;59.736;30.568;2022-09-21T09:42:48;14.34;77.13
71128;SHT30;59249;59.736;30.568;2022-09-21T09:45:44;14.48;76.82
71128;SHT30;59249;59.736;30.568;2022-09-21T09:48:48;14.51;77.09
71128;SHT30;59249;59.736;30.568;2022-09-21T09:51:21;14.60;76.97
71128;SHT30;59249;59.736;30.568;2022-09-21T09:53:58;14.64;76.66
71128;SHT30;59249;59.736;30.568;2022-09-21T09:56:27;14.57;76.82
71128;SHT30;59249;59.736;30.568;2022-09-21T09:59:02;14.48;77.00
71128;SHT30;59249;59.736;30.568;2022-09-21T10:01:37;14.57;77.21
71128;SHT30;59249;59.736;30.568;2022-09-21T10:04:12;14.65;77.19
71128;SHT30;59249;59.736;30.568;2022-09-21T10:06:42;14.70;76.67
71128;SHT30;59249;59.736;30.568;2022-09-21T10:09:27;14.65;76.51
71128;SHT30;59249;59.736;30.568;2022-09-21T10:12:23;14.66;76.68
71128;SHT30;59249;59.736;30.568;2022-09-21T10:14:56;14.59;76.19
71128;SHT30;59249;59.736;30.568;2022-09-21T10:17:30;14.59;76.08
71128;SHT30;59249;59.736;30.568;2022-09-21T10:20:12;14.50;76.66
71128;SHT30;59249;59.736;30.568;2022-09-21T10:22:52;14.57;76.94
71128;SHT30;59249;59.736;30.568;2022-09-21T10:25:22;14.60;77.11
71128;SHT30;59249;59.736;30.568;2022-09-21T10:27:52;14.60;76.74
71128;SHT30;59249;59.736;30.568;2022-09-21T10:30:35;14.55;76.78
71128;SHT30;59249;59.736;30.568;2022-09-21T10:33:19;14.52;77.07
71128;SHT30;59249;59.736;30.568;2022-09-21T10:35:55;14.57;76.56
71128;SHT30;59249;59.736;30.568;2022-09-21T10:38:25;14.46;76.72
71128;SHT30;59249;59.736;30.568;2022-09-21T10:40:54;14.48;77.40
71128;SHT30;59249;59.736;30.568;2022-09-21T10:43:34;14.52;77.54
71128;SHT30;59249;59.736;30.568;2022-09-21T10:49:19;14.56;77.45
71128;SHT30;59249;59.736;30.568;2022-09-21T10:51:54;14.57;77.26
71128;SHT30;59249;59.736;30.568;2022-09-21T10:54:29;14.72;75.99
71128;SHT30;59249;59.736;30.568;2022-09-21T10:57:06;14.58;76.60
71128;SHT30;59249;59.736;30.568;2022-09-21T10:59:36;14.55;76.32
71128;SHT30;59249;59.736;30.568;2022-09-21T11:02:36;14.59;77.01
71128;SHT30;59249;59.736;30.568;2022-09-21T11:05:14;14.63;75.86
71128;SHT30;59249;59.736;30.568;2022-09-21T11:07:51;14.57;75.83
71128;SHT30;59249;59.736;30.568;2022-09-21T11:10:29;14.46;76.89
71128;SHT30;59249;59.736;30.568;2022-09-21T11:13:22;14.55;77.13
71128;SHT30;59249;59.736;30.568;2022-09-21T11:16:02;14.69;77.05
71128;SHT30;59249;59.736;30.568;2022-09-21T11:18:45;14.76;75.62
71128;SHT30;59249;59.736;30.568;2022-09-21T11:21:21;14.77;75.73
71128;SHT30;59249;59.736;30.568;2022-09-21T11:24:04;14.72;75.72
71128;SHT30;59249;59.736;30.568;2022-09-21T11:26:44;14.78;76.40
71128;SHT30;59249;59.736;30.568;2022-09-21T11:29:21;14.89;76.50
71128;SHT30;59249;59.736;30.568;2022-09-21T11:32:19;14.88;75.20
71128;SHT30;59249;59.736;30.568;2022-09-21T11:35:22;14.83;75.29
71128;SHT30;59249;59.736;30.568;2022-09-21T11:38:10;14.69;76.06
71128;SHT30;59249;59.736;30.568;2022-09-21T11:41:15;14.68;75.91
71128;SHT30;59249;59.736;30.568;2022-09-21T11:44:21;14.74;75.97
71128;SHT30;59249;59.736;30.568;2022-09-21T11:47:06;14.81;76.27
71128;SHT30;59249;59.736;30.568;2022-09-21T11:49:57;14.70;76.13
71128;SHT30;59249;59.736;30.568;2022-09-21T11:53:19;14.85;75.97
71128;SHT30;59249;59.736;30.568;2022-09-21T11:56:34;15.00;74.76
71128;SHT30;59249;59.736;30.568;2022-09-21T12:00:02;14.96;74.75
71128;SHT30;59249;59.736;30.568;2022-09-21T12:03:14;14.92;75.29
71128;SHT30;59249;59.736;30.568;2022-09-21T12:06:05;15.00;75.61
71128;SHT30;59249;59.736;30.568;2022-09-21T12:09:08;15.04;75.16
71128;SHT30;59249;59.736;30.568;2022-09-21T12:11:53;15.14;75.21
71128;SHT30;59249;59.736;30.568;2022-09-21T12:14:33;15.15;73.25
71128;SHT30;59249;59.736;30.568;2022-09-21T12:17:17;15.04;74.20
71128;SHT30;59249;59.736;30.568;2022-09-21T12:20:30;15.05;74.67
71128;SHT30;59249;59.736;30.568;2022-09-21T12:23:15;15.18;74.64
71128;SHT30;59249;59.736;30.568;2022-09-21T12:25:55;15.17;74.09
71128;SHT30;59249;59.736;30.568;2022-09-21T12:28:33;15.31;73.71
71128;SHT30;59249;59.736;30.568;2022-09-21T12:31:12;15.20;73.71
71128;SHT30;59249;59.736;30.568;2022-09-21T12:33:52;15.21;74.20
71128;SHT30;59249;59.736;30.568;2022-09-21T12:36:32;15.18;74.39
71128;SHT30;59249;59.736;30.568;2022-09-21T12:39:18;15.20;74.36
71128;SHT30;59249;59.736;30.568;2022-09-21T12:41:58;15.23;74.05
71128;SHT30;59249;59.736;30.568;2022-09-21T12:44:37;15.20;74.09
71128;SHT30;59249;59.736;30.568;2022-09-21T12:47:24;15.18;74.07
71128;SHT30;59249;59.736;30.568;2022-09-21T12:50:04;15.00;74.44
71128;SHT30;59249;59.736;30.568;2022-09-21T12:52:37;14.98;74.20
71128;SHT30;59249;59.736;30.568;2022-09-21T12:55:27;14.90;74.21
71128;SHT30;59249;59.736;30.568;2022-09-21T12:58:12;14.88;74.37
71128;SHT30;59249;59.736;30.568;2022-09-21T13:00:59;14.92;74.09
71128;SHT30;59249;59.736;30.568;2022-09-21T13:03:36;14.84;74.57
71128;SHT30;59249;59.736;30.568;2022-09-21T13:06:52;14.77;75.04
71128;SHT30;59249;59.736;30.568;2022-09-21T13:10:06;14.70;75.18
71128;SHT30;59249;59.736;30.568;2022-09-21T13:13:03;14.71;75.35
71128;SHT30;59249;59.736;30.568;2022-09-21T13:15:44;14.87;75.22
71128;SHT30;59249;59.736;30.568;2022-09-21T13:18:28;14.89;74.67
71128;SHT30;59249;59.736;30.568;2022-09-21T13:21:15;14.85;75.09
71128;SHT30;59249;59.736;30.568;2022-09-21T13:23:54;14.91;74.71
71128;SHT30;59249;59.736;30.568;2022-09-21T13:26:34;14.98;74.28
71128;SHT30;59249;59.736;30.568;2022-09-21T13:29:29;14.87;74.01
71128;SHT30;59249;59.736;30.568;2022-09-21T13:32:01;14.85;73.66
71128;SHT30;59249;59.736;30.568;2022-09-21T13:34:35;14.81;74.16
71128;SHT30;59249;59.736;30.568;2022-09-21T13:37:31;14.57;75.72
71128;SHT30;59249;59.736;30.568;2022-09-21T13:40:32;14.42;76.60
71128;SHT30;59249;59.736;30.568;2022-09-21T13:43:24;14.20;77.18
71128;SHT30;59249;59.736;30.568;2022-09-21T13:46:53;14.18;78.20
71128;SHT30;59249;59.736;30.568;2022-09-21T13:49:37;14.16;78.82
71128;SHT30;59249;59.736;30.568;2022-09-21T13:52:23;14.11;79.14
71128;SHT30;59249;59.736;30.568;2022-09-21T13:54:57;14.09;79.28
71128;SHT30;59249;59.736;30.568;2022-09-21T13:57:35;14.04;79.20
71128;SHT30;59249;59.736;30.568;2022-09-21T14:00:31;13.85;78.91
71128;SHT30;59249;59.736;30.568;2022-09-21T14:03:17;13.83;78.08
71128;SHT30;59249;59.736;30.568;2022-09-21T14:05:51;13.79;78.73
71128;SHT30;59249;59.736;30.568;2022-09-21T14:08:26;13.72;77.94
71128;SHT30;59249;59.736;30.568;2022-09-21T14:11:01;13.62;78.55
71128;SHT30;59249;59.736;30.568;2022-09-21T14:13:35;13.71;78.15
71128;SHT30;59249;59.736;30.568;2022-09-21T14:20:05;13.63;79.20
71128;SHT30;59249;59.736;30.568;2022-09-21T14:23:26;13.56;79.08
71128;SHT30;59249;59.736;30.568;2022-09-21T14:25:56;13.61;78.18
71128;SHT30;59249;59.736;30.568;2022-09-21T14:28:34;13.67;77.05
71128;SHT30;59249;59.736;30.568;2022-09-21T14:31:13;13.63;77.29
71128;SHT30;59249;59.736;30.568;2022-09-21T14:33:48;13.68;76.54
71128;SHT30;59249;59.736;30.568;2022-09-21T14:36:23;13.58;77.24
71128;SHT30;59249;59.736;30.568;2022-09-21T14:39:02;13.67;77.15
71128;SHT30;59249;59.736;30.568;2022-09-21T14:41:39;13.73;76.60
71128;SHT30;59249;59.736;30.568;2022-09-21T14:44:19;13.69;76.65
71128;SHT30;59249;59.736;30.568;2022-09-21T14:50:07;13.76;75.29
71128;SHT30;59249;59.736;30.568;2022-09-21T14:53:11;13.56;75.49
71128;SHT30;59249;59.736;30.568;2022-09-21T14:55:58;13.40;76.19
71128;SHT30;59249;59.736;30.568;2022-09-21T14:58:47;13.39;76.16
71128;SHT30;59249;59.736;30.568;2022-09-21T15:01:37;13.41;76.12
71128;SHT30;59249;59.736;30.568;2022-09-21T15:04:28;13.53;75.88
71128;SHT30;59249;59.736;30.568;2022-09-21T15:07:18;13.68;75.09
71128;SHT30;59249;59.736;30.568;2022-09-21T15:10:25;13.78;74.68
71128;SHT30;59249;59.736;30.568;2022-09-21T15:13:36;13.83;74.49
71128;SHT30;59249;59.736;30.568;2022-09-21T15:16:31;13.83;74.67
71128;SHT30;59249;59.736;30.568;2022-09-21T15:19:23;13.85;74.89
71128;SHT30;59249;59.736;30.568;2022-09-21T15:21:54;13.83;74.74
71128;SHT30;59249;59.736;30.568;2022-09-21T15:24:29;13.70;74.92
71128;SHT30;59249;59.736;30.568;2022-09-21T15:27:06;13.53;75.85
71128;SHT30;59249;59.736;30.568;2022-09-21T15:29:42;13.34;76.16
71128;SHT30;59249;59.736;30.568;2022-09-21T15:32:32;13.18;76.87
71128;SHT30;59249;59.736;30.568;2022-09-21T15:35:14;13.04;76.69
71128;SHT30;59249;59.736;30.568;2022-09-21T15:37:45;12.94;77.25
71128;SHT30;59249;59.736;30.568;2022-09-21T15:40:18;12.85;77.34
71128;SHT30;59249;59.736;30.568;2022-09-21T15:43:01;12.71;77.91
71128;SHT30;59249;59.736;30.568;2022-09-21T15:45:46;12.64;78.23
71128;SHT30;59249;59.736;30.568;2022-09-21T15:48:22;12.58;78.57
71128;SHT30;59249;59.736;30.568;2022-09-21T15:51:08;12.56;78.77
71128;SHT30;59249;59.736;30.568;2022-09-21T15:53:46;12.51;78.97
71128;SHT30;59249;59.736;30.568;2022-09-21T15:56:21;12.47;79.25
71128;SHT30;59249;59.736;30.568;2022-09-21T15:58:59;12.48;79.46
71128;SHT30;59249;59.736;30.568;2022-09-21T16:01:42;12.39;79.60
71128;SHT30;59249;59.736;30.568;2022-09-21T16:04:18;12.39;79.46
71128;SHT30;59249;59.736;30.568;2022-09-21T16:07:00;12.36;79.63
71128;SHT30;59249;59.736;30.568;2022-09-21T16:09:41;12.31;79.88
71128;SHT30;59249;59.736;30.568;2022-09-21T16:12:38;12.30;80.47
71128;SHT30;59249;59.736;30.568;2022-09-21T16:15:25;12.23;80.18
71128;SHT30;59249;59.736;30.568;2022-09-21T16:17:59;12.22;80.75
71128;SHT30;59249;59.736;30.568;2022-09-21T16:20:45;12.19;80.95
71128;SHT30;59249;59.736;30.568;2022-09-21T16:23:21;12.18;81.00
71128;SHT30;59249;59.736;30.568;2022-09-21T16:25:55;12.16;81.14
71128;SHT30;59249;59.736;30.568;2022-09-21T16:28:37;12.16;81.27
71128;SHT30;59249;59.736;30.568;2022-09-21T16:31:37;12.15;81.15
71128;SHT30;59249;59.736;30.568;2022-09-21T16:34:29;12.18;81.14
71128;SHT30;59249;59.736;30.568;2022-09-21T16:37:24;12.12;81.32
71128;SHT30;59249;59.736;30.568;2022-09-21T16:39:58;12.12;81.44
71128;SHT30;59249;59.736;30.568;2022-09-21T16:42:29;12.13;81.31